Time;durP1;ratioP1;P1;durP2;ratioP2;P2;SDS_P1;SDS_P2;PMS_P1;PMS_P2;Temp;Humidity;BMP_temperature;BMP_pressure;BME280_temperature;BME280_humidity;BME280_pressure;Samples;Min_cycle;Max_cycle;Signal;HPM_P1;HPM_P2
2022/05/11 00:01:18;;;;;;;;;;;13.70;99.90;;;;;;5109233;28;20373;-79
2022/05/11 00:03:44;;;;;;;;;;;13.70;99.90;;;;;;5109310;28;19923;-78
2022/05/11 00:06:09;;;;;;;;;;;13.70;99.90;;;;;;5091213;28;19923;-78
2022/05/11 00:08:35;;;;;;;;;;;13.70;99.90;;;;;;5109472;28;19928;-78
2022/05/11 00:11:01;;;;;;;;;;;13.70;99.90;;;;;;5110032;28;19976;-78
2022/05/11 00:13:28;;;;;;;;;;;13.60;99.90;;;;;;5090148;28;19975;-79
2022/05/11 00:15:54;;;;;;;;;;;13.60;99.90;;;;;;5109061;28;19924;-78
2022/05/11 00:18:19;;;;;;;;;;;13.60;99.90;;;;;;5090486;28;19923;-78
2022/05/11 00:20:45;;;;;;;;;;;13.70;99.90;;;;;;5109256;28;20313;-78
2022/05/11 00:23:10;;;;;;;;;;;13.60;99.90;;;;;;5108699;28;19971;-78
2022/05/11 00:25:36;;;;;;;;;;;13.60;99.90;;;;;;5109304;28;19924;-78
2022/05/11 00:28:01;;;;;;;;;;;13.60;99.90;;;;;;5109267;28;19923;-78
2022/05/11 00:30:28;;;;;;;;;;;13.60;99.90;;;;;;5108983;28;20860;-79
2022/05/11 00:32:55;;;;;;;;;;;13.60;99.90;;;;;;5108657;28;19924;-78
2022/05/11 00:35:20;;;;;;;;;;;13.60;99.90;;;;;;5109022;28;20525;-78
2022/05/11 00:37:46;;;;;;;;;;;13.60;99.90;;;;;;5109285;28;19928;-78
2022/05/11 00:40:11;;;;;;;;;;;13.60;99.90;;;;;;5109563;28;19966;-78
2022/05/11 00:42:37;;;;;;;;;;;13.60;99.90;;;;;;5109095;28;20407;-78
2022/05/11 00:45:03;;;;;;;;;;;13.60;99.90;;;;;;5109651;28;19924;-78
2022/05/11 00:47:40;;;;;;;;;;;13.60;99.90;;;;;;5109754;28;19924;-78
2022/05/11 00:50:24;;;;;;;;;;;13.60;99.90;;;;;;5109910;28;19923;-79
2022/05/11 00:52:50;;;;;;;;;;;13.60;99.90;;;;;;5109754;28;20014;-78
2022/05/11 00:55:33;;;;;;;;;;;13.70;99.90;;;;;;5109328;28;20051;-79
2022/05/11 00:58:11;;;;;;;;;;;13.60;99.90;;;;;;5109586;28;19924;-79
2022/05/11 01:00:37;;;;;;;;;;;13.60;99.90;;;;;;5109881;28;19924;-78
2022/05/11 01:03:19;;;;;;;;;;;13.70;99.90;;;;;;5109706;28;19930;-79
2022/05/11 01:05:45;;;;;;;;;;;13.70;99.90;;;;;;5109425;28;19924;-79
2022/05/11 01:08:13;;;;;;;;;;;13.70;99.90;;;;;;5109719;28;20292;-79
2022/05/11 01:10:40;;;;;;;;;;;13.70;99.90;;;;;;5109838;28;20026;-79
2022/05/11 01:13:07;;;;;;;;;;;13.70;99.90;;;;;;5091219;28;19931;-79
2022/05/11 01:15:32;;;;;;;;;;;13.70;99.90;;;;;;5091646;28;20595;-79
2022/05/11 01:17:59;;;;;;;;;;;13.70;99.90;;;;;;5109242;28;19931;-79
2022/05/11 01:20:25;;;;;;;;;;;13.80;99.90;;;;;;5109465;28;20010;-79
2022/05/11 01:22:56;;;;;;;;;;;13.70;99.90;;;;;;5109563;28;19928;-79
2022/05/11 01:25:22;;;;;;;;;;;13.70;99.90;;;;;;5093330;28;19923;-79
2022/05/11 01:27:48;;;;;;;;;;;13.80;99.90;;;;;;5113494;28;20330;-78
2022/05/11 01:30:15;;;;;;;;;;;13.70;99.90;;;;;;5112694;28;20019;-79
2022/05/11 01:32:42;;;;;;;;;;;13.70;99.90;;;;;;5113174;28;19930;-79
2022/05/11 01:35:26;;;;;;;;;;;13.70;99.90;;;;;;5113295;28;20418;-79
2022/05/11 01:38:09;;;;;;;;;;;13.70;99.90;;;;;;5113085;28;19927;-79
2022/05/11 01:40:34;;;;;;;;;;;13.80;99.90;;;;;;5094813;28;19930;-79
2022/05/11 01:43:00;;;;;;;;;;;13.70;99.90;;;;;;5112796;28;20775;-79
2022/05/11 01:45:26;;;;;;;;;;;13.70;99.90;;;;;;5094303;28;19924;-79
2022/05/11 01:47:55;;;;;;;;;;;13.70;99.90;;;;;;5086310;28;19924;-79
2022/05/11 01:50:21;;;;;;;;;;;13.70;99.90;;;;;;5094290;28;19957;-79
2022/05/11 01:52:46;;;;;;;;;;;13.70;99.90;;;;;;5112363;28;19924;-79
2022/05/11 01:55:12;;;;;;;;;;;13.70;99.90;;;;;;5111620;28;19931;-79
2022/05/11 01:57:37;;;;;;;;;;;13.70;99.90;;;;;;5112428;28;19927;-79
2022/05/11 02:00:04;;;;;;;;;;;13.70;99.90;;;;;;5112340;28;20366;-79
2022/05/11 02:02:29;;;;;;;;;;;13.70;99.90;;;;;;5112780;28;19924;-79
2022/05/11 02:07:51;;;;;;;;;;;13.70;99.90;;;;;;5111565;28;19927;-79
2022/05/11 02:10:17;;;;;;;;;;;13.70;99.90;;;;;;5093364;28;19931;-79
2022/05/11 02:12:43;;;;;;;;;;;13.60;99.90;;;;;;5111312;28;19924;-79
2022/05/11 02:15:09;;;;;;;;;;;13.60;99.90;;;;;;5089012;28;19931;-79
2022/05/11 02:17:35;;;;;;;;;;;13.60;99.90;;;;;;5090813;28;19928;-79
2022/05/11 02:20:00;;;;;;;;;;;13.60;99.90;;;;;;5090897;28;19938;-79
2022/05/11 02:22:26;;;;;;;;;;;13.60;99.90;;;;;;5090987;28;20352;-80
2022/05/11 02:24:52;;;;;;;;;;;13.60;99.90;;;;;;5091147;28;20001;-79
2022/05/11 02:27:17;;;;;;;;;;;13.70;99.90;;;;;;5095508;28;19928;-79
2022/05/11 02:29:43;;;;;;;;;;;13.70;99.90;;;;;;5110640;28;19969;-80
2022/05/11 02:32:08;;;;;;;;;;;13.60;99.90;;;;;;5110682;28;19924;-79
2022/05/11 02:37:18;;;;;;;;;;;13.70;99.90;;;;;;5109332;28;19977;-79
2022/05/11 02:39:43;;;;;;;;;;;13.70;99.90;;;;;;5110975;28;19931;-79
2022/05/11 02:42:09;;;;;;;;;;;13.70;99.90;;;;;;5110897;28;19949;-79
2022/05/11 02:44:34;;;;;;;;;;;13.60;99.90;;;;;;5092453;28;19963;-79
2022/05/11 02:47:01;;;;;;;;;;;13.60;99.90;;;;;;5110365;28;20413;-79
2022/05/11 02:49:26;;;;;;;;;;;13.60;99.90;;;;;;5110758;28;19931;-79
2022/05/11 02:51:52;;;;;;;;;;;13.60;99.90;;;;;;5111046;28;20408;-79
2022/05/11 02:54:18;;;;;;;;;;;13.60;99.90;;;;;;5110644;28;19924;-79
2022/05/11 02:56:43;;;;;;;;;;;13.60;99.90;;;;;;5092497;28;19924;-79
2022/05/11 02:59:09;;;;;;;;;;;13.60;99.90;;;;;;5075505;28;19923;-79
2022/05/11 03:01:34;;;;;;;;;;;13.60;99.90;;;;;;5075297;28;19931;-79
2022/05/11 03:04:00;;;;;;;;;;;13.60;99.90;;;;;;5071483;28;20386;-79
2022/05/11 03:06:26;;;;;;;;;;;13.60;99.90;;;;;;5089251;28;20014;-79
2022/05/11 03:08:51;;;;;;;;;;;13.50;99.90;;;;;;5089821;28;19971;-80
2022/05/11 03:11:17;;;;;;;;;;;13.60;99.90;;;;;;5088595;28;19963;-79
2022/05/11 03:13:42;;;;;;;;;;;13.60;99.90;;;;;;5088488;28;19924;-79
2022/05/11 03:16:08;;;;;;;;;;;13.60;99.90;;;;;;5088367;28;19924;-79
2022/05/11 03:18:34;;;;;;;;;;;13.60;99.90;;;;;;5090103;28;19924;-79
2022/05/11 03:20:59;;;;;;;;;;;13.60;99.90;;;;;;5090565;28;19932;-79
2022/05/11 03:23:25;;;;;;;;;;;13.60;99.90;;;;;;5091960;28;20286;-79
2022/05/11 03:25:51;;;;;;;;;;;13.60;99.90;;;;;;5110531;28;20385;-79
2022/05/11 03:28:16;;;;;;;;;;;13.60;99.90;;;;;;5110784;28;19934;-80
2022/05/11 03:30:42;;;;;;;;;;;13.60;99.90;;;;;;5092904;28;20106;-79
2022/05/11 03:35:51;;;;;;;;;;;13.60;99.90;;;;;;5092776;28;19924;-79
2022/05/11 03:38:17;;;;;;;;;;;13.60;99.90;;;;;;5110692;28;19931;-79
2022/05/11 03:40:42;;;;;;;;;;;13.60;99.90;;;;;;5110547;28;20368;-79
2022/05/11 03:43:08;;;;;;;;;;;13.60;99.90;;;;;;5075100;28;19924;-79
2022/05/11 03:45:34;;;;;;;;;;;13.60;99.90;;;;;;5088943;28;19931;-79
2022/05/11 03:47:59;;;;;;;;;;;13.60;99.90;;;;;;5089868;28;19935;-79
2022/05/11 03:50:25;;;;;;;;;;;13.60;99.90;;;;;;5090102;28;19924;-79
2022/05/11 03:52:52;;;;;;;;;;;13.50;99.90;;;;;;5089844;28;19930;-79
2022/05/11 03:55:17;;;;;;;;;;;13.60;99.90;;;;;;5088393;28;19924;-79
2022/05/11 03:57:43;;;;;;;;;;;13.60;99.90;;;;;;5090090;28;19931;-79
2022/05/11 04:00:11;;;;;;;;;;;13.60;99.90;;;;;;5088652;28;19931;-79
2022/05/11 04:02:37;;;;;;;;;;;13.60;99.90;;;;;;5089078;28;19924;-79
2022/05/11 04:05:02;;;;;;;;;;;13.60;99.90;;;;;;5089615;28;19973;-79
2022/05/11 04:07:28;;;;;;;;;;;13.60;99.90;;;;;;5088568;28;19981;-79
2022/05/11 04:09:53;;;;;;;;;;;13.60;99.90;;;;;;5089758;28;19984;-79
2022/05/11 04:12:19;;;;;;;;;;;13.60;99.90;;;;;;5089880;28;19967;-79
2022/05/11 04:14:44;;;;;;;;;;;13.60;99.90;;;;;;5089553;28;19963;-79
2022/05/11 04:17:10;;;;;;;;;;;13.60;99.90;;;;;;5089552;28;19924;-79
2022/05/11 04:19:36;;;;;;;;;;;13.60;99.90;;;;;;5088657;28;20343;-79
2022/05/11 04:22:02;;;;;;;;;;;13.60;99.90;;;;;;5089500;28;19928;-79
2022/05/11 04:24:27;;;;;;;;;;;13.70;99.90;;;;;;5089562;28;19985;-79
2022/05/11 04:26:53;;;;;;;;;;;13.60;99.90;;;;;;5088676;28;19967;-79
2022/05/11 04:29:19;;;;;;;;;;;13.70;99.90;;;;;;5089049;28;20023;-79
2022/05/11 04:31:44;;;;;;;;;;;13.70;99.90;;;;;;5089579;28;19924;-78
2022/05/11 04:34:11;;;;;;;;;;;13.70;99.90;;;;;;5089517;28;20011;-79
2022/05/11 04:36:38;;;;;;;;;;;13.70;99.90;;;;;;5089866;28;19924;-79
2022/05/11 04:39:04;;;;;;;;;;;13.70;99.90;;;;;;5089839;28;19959;-79
2022/05/11 04:41:29;;;;;;;;;;;13.70;99.90;;;;;;5089532;28;19975;-79
2022/05/11 04:43:56;;;;;;;;;;;13.70;99.90;;;;;;5089102;28;19950;-79
2022/05/11 04:46:21;;;;;;;;;;;13.70;99.90;;;;;;5105824;28;20039;-79
2022/05/11 04:48:47;;;;;;;;;;;13.80;99.90;;;;;;5110000;28;20018;-79
2022/05/11 04:51:13;;;;;;;;;;;13.80;99.90;;;;;;5109435;28;20341;-79
2022/05/11 04:53:38;;;;;;;;;;;13.80;99.90;;;;;;5109585;28;19928;-79
2022/05/11 04:56:04;;;;;;;;;;;13.80;99.90;;;;;;5109580;28;19923;-79
2022/05/11 04:58:30;;;;;;;;;;;13.80;99.90;;;;;;5109636;28;19924;-79
2022/05/11 05:00:55;;;;;;;;;;;13.80;99.90;;;;;;5112983;28;19927;-79
2022/05/11 05:03:21;;;;;;;;;;;13.90;99.90;;;;;;5113723;28;19928;-78
2022/05/11 05:05:46;;;;;;;;;;;13.90;99.90;;;;;;5111927;28;19928;-79
2022/05/11 05:08:12;;;;;;;;;;;13.90;99.90;;;;;;5112683;28;19923;-79
2022/05/11 05:10:37;;;;;;;;;;;13.90;99.90;;;;;;5112837;28;19928;-79
2022/05/11 05:13:04;;;;;;;;;;;14.00;99.90;;;;;;5112903;28;19975;-79
2022/05/11 05:15:29;;;;;;;;;;;14.00;99.90;;;;;;5095300;28;20385;-79
2022/05/11 05:17:55;;;;;;;;;;;14.00;99.90;;;;;;5113683;28;19931;-79
2022/05/11 05:20:21;;;;;;;;;;;14.00;99.90;;;;;;5113063;28;19924;-79
2022/05/11 05:22:47;;;;;;;;;;;14.00;99.90;;;;;;5113066;28;19924;-79
2022/05/11 05:25:12;;;;;;;;;;;14.00;99.90;;;;;;5113229;28;19923;-79
2022/05/11 05:27:38;;;;;;;;;;;14.00;99.90;;;;;;5112877;28;19928;-79
2022/05/11 05:32:48;;;;;;;;;;;14.10;99.90;;;;;;5111991;28;19928;-78
2022/05/11 05:35:16;;;;;;;;;;;14.10;99.90;;;;;;5111969;28;19931;-79
2022/05/11 05:37:42;;;;;;;;;;;14.10;99.90;;;;;;5112053;28;20426;-76
2022/05/11 05:40:08;;;;;;;;;;;14.10;99.90;;;;;;5111943;28;20030;-77
2022/05/11 05:42:33;;;;;;;;;;;14.10;99.90;;;;;;5111833;28;20301;-77
2022/05/11 05:44:59;;;;;;;;;;;14.10;99.90;;;;;;5103693;27;20026;-76
2022/05/11 05:47:24;;;;;;;;;;;14.10;99.90;;;;;;5111181;28;20357;-77
2022/05/11 05:49:50;;;;;;;;;;;14.10;99.90;;;;;;5104851;28;19938;-78
2022/05/11 05:52:17;;;;;;;;;;;14.10;99.90;;;;;;5109394;28;20643;-78
2022/05/11 05:54:43;;;;;;;;;;;14.20;99.90;;;;;;5111483;28;19924;-78
2022/05/11 05:57:09;;;;;;;;;;;14.20;99.90;;;;;;5111339;28;20443;-79
2022/05/11 05:59:34;;;;;;;;;;;14.20;99.90;;;;;;5112630;28;19924;-78
2022/05/11 06:02:00;;;;;;;;;;;14.30;99.90;;;;;;5112560;28;19946;-79
2022/05/11 06:04:25;;;;;;;;;;;14.30;99.90;;;;;;5112365;28;20065;-78
2022/05/11 06:06:51;;;;;;;;;;;14.40;99.90;;;;;;5112502;28;20072;-79
2022/05/11 06:09:17;;;;;;;;;;;14.40;99.90;;;;;;5093715;28;20309;-79
2022/05/11 06:11:42;;;;;;;;;;;14.50;99.90;;;;;;5111256;28;19924;-79
2022/05/11 06:14:08;;;;;;;;;;;14.50;99.90;;;;;;5111918;28;19980;-78
2022/05/11 06:16:33;;;;;;;;;;;14.50;99.90;;;;;;5112178;28;19931;-79
2022/05/11 06:18:59;;;;;;;;;;;14.60;99.90;;;;;;5112536;28;19924;-79
2022/05/11 06:21:25;;;;;;;;;;;14.60;99.90;;;;;;5093742;28;19969;-79
2022/05/11 06:23:51;;;;;;;;;;;14.60;99.90;;;;;;5112236;28;19924;-78
2022/05/11 06:26:17;;;;;;;;;;;14.70;99.90;;;;;;5111936;28;19931;-79
2022/05/11 06:28:43;;;;;;;;;;;14.70;99.90;;;;;;5111518;28;19971;-79
2022/05/11 06:31:09;;;;;;;;;;;14.70;99.90;;;;;;5093634;28;20407;-79
2022/05/11 06:33:35;;;;;;;;;;;14.70;99.90;;;;;;5111416;28;19963;-78
2022/05/11 06:36:01;;;;;;;;;;;14.80;99.90;;;;;;5092592;28;20813;-78
2022/05/11 06:38:27;;;;;;;;;;;14.90;99.90;;;;;;5110733;28;19928;-79
2022/05/11 06:40:52;;;;;;;;;;;14.90;99.90;;;;;;5092743;28;19954;-79
2022/05/11 06:43:18;;;;;;;;;;;15.10;99.90;;;;;;5110896;28;19974;-79
2022/05/11 06:45:43;;;;;;;;;;;15.10;99.90;;;;;;5111334;28;19935;-79
2022/05/11 06:48:09;;;;;;;;;;;15.20;99.90;;;;;;5111284;28;19924;-79
2022/05/11 06:50:35;;;;;;;;;;;15.30;99.90;;;;;;5111719;28;19930;-79
2022/05/11 06:53:06;;;;;;;;;;;15.30;99.90;;;;;;5111634;28;19924;-79
2022/05/11 07:01:00;;;;;;;;;;;15.50;99.90;;;;;;5111518;28;19923;-79
2022/05/11 07:03:25;;;;;;;;;;;15.50;99.90;;;;;;5111449;28;19945;-79
2022/05/11 07:05:51;;;;;;;;;;;15.50;99.90;;;;;;5111561;28;20476;-79
2022/05/11 07:08:16;;;;;;;;;;;15.60;99.90;;;;;;5111076;28;19934;-79
2022/05/11 07:10:42;;;;;;;;;;;15.60;99.90;;;;;;5110960;28;20350;-79
2022/05/11 07:13:08;;;;;;;;;;;15.60;99.90;;;;;;5109636;28;20000;-78
2022/05/11 07:15:34;;;;;;;;;;;15.60;99.90;;;;;;5111083;28;19930;-78
2022/05/11 07:18:03;;;;;;;;;;;15.70;99.90;;;;;;5110994;28;19924;-78
2022/05/11 07:20:33;;;;;;;;;;;15.70;99.90;;;;;;5110982;28;19931;-79
2022/05/11 07:23:00;;;;;;;;;;;15.70;99.90;;;;;;5110564;28;19928;-79
2022/05/11 07:25:27;;;;;;;;;;;15.70;99.90;;;;;;5111127;28;20022;-79
2022/05/11 07:27:53;;;;;;;;;;;15.80;99.90;;;;;;5092555;28;19930;-79
2022/05/11 07:30:20;;;;;;;;;;;15.80;99.90;;;;;;5110643;28;20014;-79
2022/05/11 07:32:46;;;;;;;;;;;15.90;99.90;;;;;;5110429;28;20298;-78
2022/05/11 07:35:11;;;;;;;;;;;16.00;99.90;;;;;;5111197;28;19934;-79
2022/05/11 07:37:37;;;;;;;;;;;16.00;99.90;;;;;;5092556;28;19924;-78
2022/05/11 07:40:03;;;;;;;;;;;16.10;99.90;;;;;;5110606;28;19929;-77
2022/05/11 07:42:30;;;;;;;;;;;16.10;99.90;;;;;;5110795;28;19927;-78
2022/05/11 07:44:55;;;;;;;;;;;16.10;99.90;;;;;;5110564;28;19949;-79
2022/05/11 07:47:21;;;;;;;;;;;16.20;99.90;;;;;;5088912;28;19927;-78
2022/05/11 07:49:46;;;;;;;;;;;16.20;99.90;;;;;;5089805;28;19930;-79
2022/05/11 07:52:12;;;;;;;;;;;16.30;99.90;;;;;;5090283;28;20386;-78
2022/05/11 07:54:40;;;;;;;;;;;16.40;99.90;;;;;;5090165;28;20386;-78
2022/05/11 07:59:56;;;;;;;;;;;16.60;99.90;;;;;;5090100;28;19924;-78
2022/05/11 08:02:32;;;;;;;;;;;16.70;99.90;;;;;;5088764;28;19934;-78
2022/05/11 08:04:58;;;;;;;;;;;16.70;99.90;;;;;;5089843;28;19924;-79
2022/05/11 08:07:26;;;;;;;;;;;16.70;99.90;;;;;;5090173;28;19982;-79
2022/05/11 08:09:52;;;;;;;;;;;16.80;99.90;;;;;;5090079;28;19954;-79
2022/05/11 08:12:18;;;;;;;;;;;16.80;99.90;;;;;;5089838;28;19924;-79
2022/05/11 08:14:44;;;;;;;;;;;16.90;99.90;;;;;;5089765;28;20378;-79
2022/05/11 08:17:10;;;;;;;;;;;17.00;99.90;;;;;;5089734;28;20015;-79
2022/05/11 08:19:36;;;;;;;;;;;17.10;99.90;;;;;;5088903;28;20360;-78
2022/05/11 08:22:02;;;;;;;;;;;17.20;99.90;;;;;;5101278;28;20374;-79
2022/05/11 08:24:27;;;;;;;;;;;17.30;99.90;;;;;;5074647;28;19931;-79
2022/05/11 08:26:53;;;;;;;;;;;17.40;99.90;;;;;;5109708;28;20362;-79
2022/05/11 08:34:49;;;;;;;;;;;17.80;99.90;;;;;;5110464;28;20380;-79
2022/05/11 08:37:14;;;;;;;;;;;17.80;99.90;;;;;;5114200;28;20031;-78
2022/05/11 08:39:40;;;;;;;;;;;17.80;99.90;;;;;;5096197;28;20085;-79
2022/05/11 08:42:06;;;;;;;;;;;17.90;99.90;;;;;;5113846;28;19927;-79
2022/05/11 08:44:33;;;;;;;;;;;18.10;99.90;;;;;;5095849;28;20014;-78
2022/05/11 08:47:06;;;;;;;;;;;18.20;99.90;;;;;;5114107;28;19928;-78
2022/05/11 08:49:52;;;;;;;;;;;18.20;99.90;;;;;;5113892;28;20305;-79
2022/05/11 08:52:26;;;;;;;;;;;18.10;99.90;;;;;;5114083;28;19924;-79
2022/05/11 08:54:56;;;;;;;;;;;18.10;99.90;;;;;;5095663;28;20424;-78
2022/05/11 08:57:26;;;;;;;;;;;18.00;99.90;;;;;;5113917;28;19932;-79
2022/05/11 08:59:57;;;;;;;;;;;17.90;99.90;;;;;;5113903;28;19924;-79
2022/05/11 09:02:28;;;;;;;;;;;17.90;99.90;;;;;;5095041;28;19932;-78
2022/05/11 09:04:56;;;;;;;;;;;17.90;99.90;;;;;;5113628;28;19927;-78
2022/05/11 09:07:22;;;;;;;;;;;17.90;99.90;;;;;;5113730;28;20368;-79
2022/05/11 09:09:47;;;;;;;;;;;17.90;99.90;;;;;;5113849;28;20400;-79
2022/05/11 09:12:13;;;;;;;;;;;18.00;99.90;;;;;;5112847;28;19963;-78
2022/05/11 09:14:39;;;;;;;;;;;18.10;99.90;;;;;;5113630;28;20434;-78
2022/05/11 09:17:06;;;;;;;;;;;18.20;99.90;;;;;;5113399;28;19954;-79
2022/05/11 09:19:33;;;;;;;;;;;18.30;99.90;;;;;;5113123;28;19951;-79
2022/05/11 09:22:10;;;;;;;;;;;18.30;99.90;;;;;;5112720;28;19928;-78
2022/05/11 09:24:46;;;;;;;;;;;18.30;99.90;;;;;;5113337;28;19927;-79
2022/05/11 09:27:22;;;;;;;;;;;18.30;99.90;;;;;;5113108;28;20046;-79
2022/05/11 09:29:54;;;;;;;;;;;18.40;99.90;;;;;;5113288;28;19967;-79
2022/05/11 09:32:29;;;;;;;;;;;18.60;99.90;;;;;;5112923;28;20018;-78
2022/05/11 09:34:55;;;;;;;;;;;18.80;99.90;;;;;;5094649;28;20823;-79
2022/05/11 09:37:27;;;;;;;;;;;19.20;99.90;;;;;;5095185;28;20018;-79
2022/05/11 09:39:54;;;;;;;;;;;19.50;99.90;;;;;;5113171;28;19992;-79
2022/05/11 09:42:25;;;;;;;;;;;20.10;99.90;;;;;;5112859;28;19975;-79
2022/05/11 09:44:52;;;;;;;;;;;20.50;99.90;;;;;;5112406;28;20011;-79
2022/05/11 09:47:29;;;;;;;;;;;20.90;99.40;;;;;;5112607;28;20218;-79
2022/05/11 09:49:55;;;;;;;;;;;21.30;99.30;;;;;;5113127;28;19928;-79
2022/05/11 09:52:31;;;;;;;;;;;21.40;97.20;;;;;;5112957;28;20010;-79
2022/05/11 09:54:57;;;;;;;;;;;21.40;97.40;;;;;;5112296;28;19923;-79
2022/05/11 09:57:28;;;;;;;;;;;21.30;96.40;;;;;;5094720;28;19950;-79
2022/05/11 10:00:13;;;;;;;;;;;21.20;96.50;;;;;;5112677;28;19924;-79
2022/05/11 10:02:41;;;;;;;;;;;21.30;95.30;;;;;;5112553;28;19924;-79
2022/05/11 10:05:09;;;;;;;;;;;21.30;94.90;;;;;;5112613;28;19924;-79
2022/05/11 10:07:37;;;;;;;;;;;21.30;94.60;;;;;;5112294;28;19924;-79
2022/05/11 10:10:08;;;;;;;;;;;21.10;94.60;;;;;;5112152;28;19924;-79
2022/05/11 10:12:35;;;;;;;;;;;21.00;95.40;;;;;;5094343;28;20446;-79
2022/05/11 10:23:29;;;;;;;;;;;20.80;93.70;;;;;;5091851;28;20378;-79
2022/05/11 10:26:01;;;;;;;;;;;20.70;93.70;;;;;;5073769;28;20336;-79
2022/05/11 10:28:33;;;;;;;;;;;20.70;94.40;;;;;;5073892;28;19928;-79
2022/05/11 10:31:05;;;;;;;;;;;21.20;94.20;;;;;;5091207;28;20471;-79
2022/05/11 10:33:30;;;;;;;;;;;21.70;94.20;;;;;;5090762;28;20617;-79
2022/05/11 10:36:05;;;;;;;;;;;22.20;93.30;;;;;;5090545;28;20003;-79
2022/05/11 10:38:30;;;;;;;;;;;22.30;91.90;;;;;;5090214;28;20389;-79
2022/05/11 10:40:56;;;;;;;;;;;22.30;92.30;;;;;;5090475;28;19973;-79
2022/05/11 10:43:21;;;;;;;;;;;22.60;91.90;;;;;;5090595;28;19928;-80
2022/05/11 10:45:50;;;;;;;;;;;22.80;91.10;;;;;;5090159;28;19924;-79
2022/05/11 10:48:35;;;;;;;;;;;23.00;90.50;;;;;;5072157;28;20293;-79
2022/05/11 10:51:16;;;;;;;;;;;23.00;87.20;;;;;;5090190;28;20360;-79
2022/05/11 10:53:42;;;;;;;;;;;23.20;89.20;;;;;;5090210;28;19923;-79
2022/05/11 10:56:08;;;;;;;;;;;23.40;86.30;;;;;;5090024;28;19928;-79
2022/05/11 10:58:42;;;;;;;;;;;23.30;82.60;;;;;;5089640;28;19965;-79
2022/05/11 11:01:09;;;;;;;;;;;23.00;82.70;;;;;;5089843;28;20669;-77
2022/05/11 11:03:54;;;;;;;;;;;22.90;85.40;;;;;;5090231;28;19928;-77
2022/05/11 11:09:51;;;;;;;;;;;22.60;85.50;;;;;;5042582;28;20039;-76
2022/05/11 11:12:43;;;;;;;;;;;22.60;83.90;;;;;;5071480;28;20524;-76
2022/05/11 11:15:11;;;;;;;;;;;22.90;82.70;;;;;;5068798;28;19924;-77
2022/05/11 11:17:36;;;;;;;;;;;23.00;83.10;;;;;;5089555;28;19985;-77
2022/05/11 11:20:04;;;;;;;;;;;23.00;81.80;;;;;;5089731;28;19927;-77
2022/05/11 11:22:50;;;;;;;;;;;22.70;80.00;;;;;;5105421;28;19927;-77
2022/05/11 11:25:19;;;;;;;;;;;22.50;81.90;;;;;;5109772;28;19924;-77
2022/05/11 11:28:08;;;;;;;;;;;22.30;81.90;;;;;;5109988;28;20339;-76
2022/05/11 11:30:34;;;;;;;;;;;22.40;83.00;;;;;;5109647;28;20352;-76
2022/05/11 11:33:08;;;;;;;;;;;22.30;82.50;;;;;;5109786;28;19934;-77
2022/05/11 11:35:34;;;;;;;;;;;22.20;81.70;;;;;;5109804;28;19923;-76
2022/05/11 11:38:01;;;;;;;;;;;22.10;82.10;;;;;;5109819;28;19928;-76
2022/05/11 11:40:28;;;;;;;;;;;22.30;83.70;;;;;;5091650;28;20309;-77
2022/05/11 11:42:54;;;;;;;;;;;22.50;83.00;;;;;;5109731;28;19931;-77
2022/05/11 11:45:29;;;;;;;;;;;22.80;83.90;;;;;;5109700;28;20327;-77
2022/05/11 11:47:59;;;;;;;;;;;23.10;80.40;;;;;;5110509;28;19935;-77
2022/05/11 11:50:44;;;;;;;;;;;23.20;81.70;;;;;;5110530;28;19931;-77
2022/05/11 11:53:11;;;;;;;;;;;23.00;80.10;;;;;;5109949;28;20015;-76
2022/05/11 11:55:37;;;;;;;;;;;23.10;79.80;;;;;;5110819;28;19935;-77
2022/05/11 11:58:18;;;;;;;;;;;23.30;80.40;;;;;;5092137;28;19924;-77
2022/05/11 12:00:46;;;;;;;;;;;23.10;78.10;;;;;;5108097;28;19951;-77
2022/05/11 12:03:19;;;;;;;;;;;23.10;80.10;;;;;;5110069;28;19935;-76
2022/05/11 12:05:48;;;;;;;;;;;23.00;80.30;;;;;;5110536;28;19923;-79
2022/05/11 12:16:46;;;;;;;;;;;22.50;78.10;;;;;;5089883;28;20450;-78
2022/05/11 12:19:13;;;;;;;;;;;22.10;78.90;;;;;;5107263;28;20409;-79
2022/05/11 12:21:39;;;;;;;;;;;21.90;79.70;;;;;;5091851;28;19935;-79
2022/05/11 12:24:06;;;;;;;;;;;21.70;79.60;;;;;;5110258;28;19927;-79
2022/05/11 12:26:34;;;;;;;;;;;21.80;82.00;;;;;;5091684;28;19924;-79
2022/05/11 12:29:54;;;;;;;;;;;21.90;82.80;;;;;;5091328;28;20005;-79
2022/05/11 12:31:55;;;;;;;;;;;22.00;80.90;;;;;;5109838;28;19924;-79
2022/05/11 12:34:21;;;;;;;;;;;21.90;79.80;;;;;;5091749;28;19924;-79
2022/05/11 12:36:49;;;;;;;;;;;22.00;79.50;;;;;;5110033;28;20365;-79
2022/05/11 12:39:14;;;;;;;;;;;21.90;77.10;;;;;;5109507;28;19924;-79
2022/05/11 12:41:42;;;;;;;;;;;22.00;79.70;;;;;;5091970;28;19930;-79
2022/05/11 12:44:12;;;;;;;;;;;22.30;77.30;;;;;;5109744;28;19924;-79
2022/05/11 12:46:39;;;;;;;;;;;22.40;74.00;;;;;;5109802;28;19988;-79
2022/05/11 12:49:05;;;;;;;;;;;22.50;74.90;;;;;;5091369;28;20291;-79
2022/05/11 12:51:30;;;;;;;;;;;22.70;75.60;;;;;;5074696;28;19928;-79
2022/05/11 12:53:58;;;;;;;;;;;23.00;73.20;;;;;;5091569;28;19928;-79
2022/05/11 12:56:28;;;;;;;;;;;23.40;74.40;;;;;;5091422;28;19931;-79
2022/05/11 12:58:58;;;;;;;;;;;23.70;71.60;;;;;;5109789;28;19924;-79
2022/05/11 13:01:25;;;;;;;;;;;23.80;69.20;;;;;;5109959;28;20010;-77
2022/05/11 13:03:54;;;;;;;;;;;24.00;68.90;;;;;;5109568;28;19966;-76
2022/05/11 13:06:25;;;;;;;;;;;24.20;67.30;;;;;;5109642;28;19934;-77
2022/05/11 13:08:53;;;;;;;;;;;24.30;65.70;;;;;;5109797;28;19931;-77
2022/05/11 13:11:20;;;;;;;;;;;24.40;65.10;;;;;;5109439;28;20413;-77
2022/05/11 13:13:47;;;;;;;;;;;24.50;66.60;;;;;;5109669;28;20008;-77
2022/05/11 13:16:18;;;;;;;;;;;24.80;63.60;;;;;;5109207;28;19928;-77
2022/05/11 13:18:44;;;;;;;;;;;24.90;61.70;;;;;;5091348;28;20015;-77
2022/05/11 13:21:10;;;;;;;;;;;24.80;61.60;;;;;;5110886;28;20012;-77
2022/05/11 13:23:37;;;;;;;;;;;24.50;58.00;;;;;;5113348;28;20399;-77
2022/05/11 13:26:11;;;;;;;;;;;24.20;59.40;;;;;;5077614;28;19931;-76
2022/05/11 13:28:41;;;;;;;;;;;24.10;58.50;;;;;;5078164;28;19924;-77
2022/05/11 13:31:23;;;;;;;;;;;24.10;60.30;;;;;;5094739;28;19974;-76
2022/05/11 13:33:49;;;;;;;;;;;24.00;59.30;;;;;;5113225;28;19924;-77
2022/05/11 13:36:14;;;;;;;;;;;23.90;61.20;;;;;;5113042;28;20437;-77
2022/05/11 13:38:50;;;;;;;;;;;24.20;60.70;;;;;;5112652;28;19924;-77
2022/05/11 13:41:18;;;;;;;;;;;24.60;60.00;;;;;;5112841;28;20312;-77
2022/05/11 13:43:53;;;;;;;;;;;25.10;59.50;;;;;;5112941;28;20015;-77
2022/05/11 13:49:37;;;;;;;;;;;25.10;58.40;;;;;;5051087;28;20007;-77
2022/05/11 13:52:05;;;;;;;;;;;24.60;57.40;;;;;;5076639;28;19924;-77
2022/05/11 13:54:30;;;;;;;;;;;24.10;59.50;;;;;;5093667;28;19924;-76
2022/05/11 13:56:57;;;;;;;;;;;23.90;60.20;;;;;;5093626;28;19931;-76
2022/05/11 13:59:23;;;;;;;;;;;23.60;60.30;;;;;;5093460;28;19928;-77
2022/05/11 14:01:49;;;;;;;;;;;23.40;59.80;;;;;;5093614;28;20377;-77
2022/05/11 14:04:20;;;;;;;;;;;23.20;60.60;;;;;;5092946;28;19935;-77
2022/05/11 14:06:52;;;;;;;;;;;23.50;60.90;;;;;;5111572;28;20385;-77
2022/05/11 14:09:18;;;;;;;;;;;23.70;58.90;;;;;;5093400;28;19982;-79
2022/05/11 14:11:43;;;;;;;;;;;24.20;59.30;;;;;;5111807;28;20378;-79
2022/05/11 14:14:09;;;;;;;;;;;24.30;59.80;;;;;;5092907;28;19932;-78
2022/05/11 14:16:34;;;;;;;;;;;24.20;58.50;;;;;;5093166;28;19978;-79
2022/05/11 14:19:00;;;;;;;;;;;24.10;59.10;;;;;;5093380;28;19928;-79
2022/05/11 14:21:26;;;;;;;;;;;24.30;59.90;;;;;;5093361;28;19924;-79
2022/05/11 14:23:52;;;;;;;;;;;24.60;60.00;;;;;;5093157;28;19935;-79
2022/05/11 14:26:17;;;;;;;;;;;24.60;59.40;;;;;;5092601;28;19927;-79
2022/05/11 14:28:43;;;;;;;;;;;24.40;59.80;;;;;;5111318;28;20300;-79
2022/05/11 14:31:12;;;;;;;;;;;24.00;58.50;;;;;;5075885;28;19949;-79
2022/05/11 14:33:37;;;;;;;;;;;23.60;57.40;;;;;;5075022;28;19923;-79
2022/05/11 14:36:03;;;;;;;;;;;23.20;58.40;;;;;;5110928;28;20335;-79
2022/05/11 14:38:28;;;;;;;;;;;23.40;59.50;;;;;;5092928;28;19931;-79
2022/05/11 14:40:57;;;;;;;;;;;24.20;59.10;;;;;;5075623;28;19934;-79
2022/05/11 14:43:24;;;;;;;;;;;24.60;58.60;;;;;;5110736;28;20428;-79
2022/05/11 14:45:52;;;;;;;;;;;24.60;58.40;;;;;;5072454;28;19924;-79
2022/05/11 14:48:21;;;;;;;;;;;24.30;59.40;;;;;;5089493;28;20347;-79
2022/05/11 14:50:46;;;;;;;;;;;24.20;60.10;;;;;;5089258;28;20003;-79
2022/05/11 14:53:12;;;;;;;;;;;23.90;60.20;;;;;;5090259;28;20062;-80
2022/05/11 14:55:37;;;;;;;;;;;23.40;61.60;;;;;;5088988;28;19928;-79
2022/05/11 15:03:33;;;;;;;;;;;22.00;65.90;;;;;;5090510;28;19924;-79
2022/05/11 15:05:59;;;;;;;;;;;21.80;63.90;;;;;;5091099;28;19924;-79
2022/05/11 15:08:25;;;;;;;;;;;21.70;64.70;;;;;;5089660;28;19924;-79
2022/05/11 15:13:30;;;;;;;;;;;21.40;64.30;;;;;;5090590;28;19928;-79
2022/05/11 15:13:36;;;;;;;;;;;21.20;64.90;;;;;;5090944;28;20019;-79